Time;durP1;ratioP1;P1;durP2;ratioP2;P2;SDS_P1;SDS_P2;PMS_P1;PMS_P2;Temp;Humidity;BMP_temperature;BMP_pressure;BME280_temperature;BME280_humidity;BME280_pressure;Samples;Min_cycle;Max_cycle;Signal;HPM_P1;HPM_P2
2021/04/15 00:00:33;;;;;;;4.10;2.47;;;5.60;99.90;;;;;;5096987;28;20530;-68
2021/04/15 00:03:00;;;;;;;1.93;1.30;;;5.60;99.90;;;;;;5087224;27;20559;-67
2021/04/15 00:05:29;;;;;;;6.27;2.83;;;5.50;99.90;;;;;;5087198;27;20941;-68
2021/04/15 00:07:57;;;;;;;4.43;1.90;;;5.20;99.90;;;;;;5083336;27;21161;-67
2021/04/15 00:10:26;;;;;;;2.33;1.83;;;5.10;99.90;;;;;;5093720;27;20452;-68
2021/04/15 00:12:53;;;;;;;1.73;1.63;;;5.20;99.90;;;;;;5091893;27;20444;-67
2021/04/15 00:15:20;;;;;;;3.00;1.60;;;4.90;99.90;;;;;;5094499;27;20488;-67
2021/04/15 00:17:46;;;;;;;1.97;1.50;;;4.80;99.90;;;;;;5086628;27;20653;-68
2021/04/15 00:20:14;;;;;;;2.73;2.20;;;4.80;99.90;;;;;;5089527;28;20455;-67
2021/04/15 00:22:41;;;;;;;2.23;2.03;;;4.70;99.90;;;;;;5090683;27;20482;-68
2021/04/15 00:25:09;;;;;;;5.57;1.80;;;4.80;99.90;;;;;;5096523;27;20910;-67
2021/04/15 00:27:36;;;;;;;4.00;1.90;;;4.90;99.90;;;;;;5098147;27;20432;-67
2021/04/15 00:30:03;;;;;;;7.07;2.07;;;4.90;99.90;;;;;;5079587;27;21097;-67
2021/04/15 00:32:30;;;;;;;3.50;2.23;;;4.70;99.90;;;;;;5093150;27;20541;-67
2021/04/15 00:34:56;;;;;;;2.57;2.20;;;4.60;99.90;;;;;;5087054;27;20540;-67
2021/04/15 00:37:23;;;;;;;4.37;2.47;;;4.40;99.90;;;;;;5086493;28;21867;-67
2021/04/15 00:39:51;;;;;;;4.40;2.13;;;4.50;99.90;;;;;;5073361;27;20462;-67
2021/04/15 00:42:17;;;;;;;6.27;2.43;;;4.80;99.90;;;;;;5092498;27;20541;-67
2021/04/15 00:44:44;;;;;;;3.83;2.70;;;4.70;99.90;;;;;;5092845;27;20617;-67
2021/04/15 00:47:17;;;;;;;3.87;2.83;;;4.60;99.90;;;;;;5086142;27;27032;-68
2021/04/15 00:49:51;;;;;;;4.07;2.03;;;4.50;99.90;;;;;;5091038;27;20511;-68
2021/04/15 00:52:21;;;;;;;3.33;2.10;;;4.50;99.90;;;;;;5096925;27;20513;-67
2021/04/15 00:54:52;;;;;;;1.70;1.60;;;4.40;99.90;;;;;;5094721;27;20491;-68
2021/04/15 00:57:22;;;;;;;2.77;1.73;;;4.70;99.90;;;;;;5093831;27;20451;-68
2021/04/15 00:59:48;;;;;;;3.10;2.80;;;4.90;99.90;;;;;;5095349;27;21495;-68
2021/04/15 01:02:19;;;;;;;2.47;2.27;;;5.00;99.90;;;;;;5080135;27;20456;-68
2021/04/15 01:04:46;;;;;;;3.53;2.07;;;4.90;99.90;;;;;;5089371;27;20637;-67
2021/04/15 01:07:13;;;;;;;1.93;1.60;;;5.00;99.90;;;;;;5088461;27;20498;-66
2021/04/15 01:09:40;;;;;;;4.97;2.60;;;4.90;99.90;;;;;;5089710;27;20423;-67
2021/04/15 01:12:28;;;;;;;2.57;2.20;;;4.90;99.90;;;;;;5071628;27;20549;-66
2021/04/15 01:15:14;;;;;;;3.57;2.20;;;5.00;99.90;;;;;;5089102;27;20454;-66
2021/04/15 01:17:49;;;;;;;2.80;2.03;;;5.10;99.90;;;;;;5084701;27;20463;-67
2021/04/15 01:20:46;;;;;;;2.60;1.67;;;5.20;99.90;;;;;;5093043;27;22039;-67
2021/04/15 01:23:21;;;;;;;3.30;2.53;;;5.10;99.90;;;;;;5086799;27;20524;-68
2021/04/15 01:26:16;;;;;;;2.73;2.23;;;5.10;99.90;;;;;;5090101;27;20444;-67
2021/04/15 01:29:06;;;;;;;2.33;1.70;;;5.10;99.90;;;;;;5094512;27;20460;-67
2021/04/15 01:31:44;;;;;;;3.33;2.50;;;5.10;99.90;;;;;;5086987;27;20875;-67
2021/04/15 01:34:16;;;;;;;3.87;2.53;;;5.10;99.90;;;;;;5098949;27;20460;-67
2021/04/15 01:36:47;;;;;;;2.83;2.50;;;5.00;99.90;;;;;;5086879;27;20477;-67
2021/04/15 01:39:17;;;;;;;4.33;2.27;;;4.90;99.90;;;;;;5098399;27;20539;-67
2021/04/15 01:41:51;;;;;;;2.17;1.97;;;4.90;99.90;;;;;;5092480;27;20456;-67
2021/04/15 01:44:25;;;;;;;1.53;1.40;;;5.10;99.90;;;;;;5087031;27;20538;-67
2021/04/15 01:46:56;;;;;;;3.47;2.40;;;5.10;99.90;;;;;;5086510;27;20443;-67
2021/04/15 01:49:25;;;;;;;3.57;2.10;;;5.00;99.90;;;;;;5093086;27;20434;-68
2021/04/15 01:51:53;;;;;;;1.50;1.30;;;4.90;99.90;;;;;;5097551;27;20459;-68
2021/04/15 01:54:25;;;;;;;4.50;3.17;;;4.80;99.90;;;;;;5087686;28;20452;-67
2021/04/15 01:56:57;;;;;;;3.07;1.97;;;4.80;99.90;;;;;;5091884;27;20461;-68
2021/04/15 01:59:30;;;;;;;6.40;2.67;;;4.80;99.90;;;;;;5078924;27;20537;-68
2021/04/15 02:02:01;;;;;;;3.90;1.60;;;4.70;99.90;;;;;;5095806;27;20943;-67
2021/04/15 02:04:32;;;;;;;2.10;1.67;;;5.00;99.90;;;;;;5087273;27;20444;-67
2021/04/15 02:07:10;;;;;;;5.50;2.17;;;4.90;99.90;;;;;;5095349;28;20428;-68
2021/04/15 02:09:39;;;;;;;5.57;2.27;;;5.00;99.90;;;;;;5094293;28;20514;-67
2021/04/15 02:12:11;;;;;;;2.20;2.00;;;5.10;99.90;;;;;;5086613;28;20456;-68
2021/04/15 02:14:41;;;;;;;2.63;2.10;;;5.20;99.90;;;;;;5082256;27;21006;-66
2021/04/15 02:17:10;;;;;;;23.00;3.43;;;5.20;99.90;;;;;;5089191;27;20541;-65
2021/04/15 02:19:43;;;;;;;1.73;1.63;;;5.10;99.90;;;;;;5089271;28;20449;-66
2021/04/15 02:22:15;;;;;;;2.90;2.10;;;5.00;99.90;;;;;;5090195;28;20542;-66
2021/04/15 02:24:51;;;;;;;3.20;2.20;;;5.00;99.90;;;;;;5088645;28;20542;-66
2021/04/15 02:27:23;;;;;;;6.10;2.73;;;5.00;99.90;;;;;;5085138;28;20491;-66
2021/04/15 02:29:55;;;;;;;3.13;1.80;;;5.00;99.90;;;;;;5085470;28;20559;-67
2021/04/15 02:32:27;;;;;;;2.67;2.23;;;4.90;99.90;;;;;;5084252;28;20548;-67
2021/04/15 02:34:59;;;;;;;1.87;1.67;;;4.60;99.90;;;;;;5080741;28;20955;-66
2021/04/15 02:37:33;;;;;;;1.80;1.43;;;4.40;99.90;;;;;;5081359;28;20435;-66
2021/04/15 02:40:04;;;;;;;4.80;2.23;;;4.50;99.90;;;;;;5081551;28;20456;-66
2021/04/15 02:42:36;;;;;;;3.50;2.40;;;4.50;99.90;;;;;;5085428;28;20889;-67
2021/04/15 02:45:19;;;;;;;2.77;1.90;;;4.60;99.90;;;;;;5089812;28;20518;-66
2021/04/15 02:47:50;;;;;;;3.03;2.50;;;4.60;99.90;;;;;;5093976;28;20458;-66
2021/04/15 02:50:20;;;;;;;3.27;2.17;;;4.60;99.90;;;;;;5099847;27;21222;-66
2021/04/15 02:52:50;;;;;;;4.93;2.60;;;4.70;99.90;;;;;;5091343;27;20435;-67
2021/04/15 02:55:20;;;;;;;10.30;4.67;;;4.70;99.90;;;;;;5089569;27;20535;-66
2021/04/15 02:57:50;;;;;;;5.17;4.20;;;4.70;99.90;;;;;;5088871;27;20502;-66
2021/04/15 03:00:22;;;;;;;3.13;2.17;;;4.70;99.90;;;;;;5096098;27;20876;-67
2021/04/15 03:02:57;;;;;;;2.00;1.80;;;4.60;99.90;;;;;;5095971;27;20488;-66
2021/04/15 03:05:25;;;;;;;5.73;2.97;;;4.30;99.90;;;;;;5095702;27;20415;-65
2021/04/15 03:07:55;;;;;;;1.83;1.43;;;4.30;99.90;;;;;;5098625;27;20523;-66
2021/04/15 03:10:24;;;;;;;4.13;2.33;;;4.20;99.90;;;;;;5089781;27;20592;-66
2021/04/15 03:12:55;;;;;;;2.60;2.40;;;4.10;99.90;;;;;;5105820;27;20514;-66
2021/04/15 03:15:28;;;;;;;3.43;2.53;;;4.10;99.90;;;;;;5093662;27;20480;-65
2021/04/15 03:17:59;;;;;;;2.57;2.30;;;4.10;99.90;;;;;;5095682;27;20531;-66
2021/04/15 03:20:29;;;;;;;4.10;2.67;;;4.10;99.90;;;;;;5100399;27;20545;-66
2021/04/15 03:22:59;;;;;;;5.53;1.97;;;4.10;99.90;;;;;;5092502;27;20435;-66
2021/04/15 03:25:26;;;;;;;3.53;1.70;;;4.00;99.90;;;;;;5095319;27;20415;-66
2021/04/15 03:27:59;;;;;;;7.83;3.80;;;3.90;99.90;;;;;;5087278;27;20543;-66
2021/04/15 03:30:32;;;;;;;2.57;1.70;;;3.90;99.90;;;;;;5089844;27;20529;-66
2021/04/15 03:33:06;;;;;;;5.00;3.30;;;3.80;99.90;;;;;;5092078;27;20446;-66
2021/04/15 03:35:38;;;;;;;4.10;3.20;;;3.80;99.90;;;;;;5091859;27;20546;-66
2021/04/15 03:38:10;;;;;;;3.80;2.60;;;3.70;99.90;;;;;;5087461;27;20501;-66
2021/04/15 03:40:40;;;;;;;2.90;2.67;;;3.60;99.90;;;;;;5089410;27;20473;-66
2021/04/15 03:43:11;;;;;;;5.90;3.23;;;3.50;99.90;;;;;;5094518;27;20416;-66
2021/04/15 03:45:44;;;;;;;2.87;2.23;;;3.40;99.90;;;;;;5092821;27;22793;-67
2021/04/15 03:48:14;;;;;;;3.00;2.07;;;3.50;99.90;;;;;;5096784;27;20979;-65
2021/04/15 03:50:49;;;;;;;3.60;2.43;;;3.30;99.90;;;;;;5105692;27;20446;-66
2021/04/15 03:53:20;;;;;;;6.43;3.10;;;3.20;99.90;;;;;;5103960;27;20451;-67
2021/04/15 03:55:53;;;;;;;2.70;2.37;;;3.20;99.90;;;;;;5098799;27;20453;-66
2021/04/15 03:58:24;;;;;;;5.60;3.00;;;3.20;99.90;;;;;;5100147;27;20489;-66
2021/04/15 04:00:55;;;;;;;5.37;3.00;;;3.10;99.90;;;;;;5094965;27;20473;-66
2021/04/15 04:03:24;;;;;;;5.00;2.80;;;3.20;99.90;;;;;;5087092;27;20427;-67
2021/04/15 04:05:56;;;;;;;4.00;2.60;;;3.20;99.90;;;;;;5087709;27;20431;-67
2021/04/15 04:08:28;;;;;;;2.70;1.93;;;3.20;99.90;;;;;;5095173;27;20839;-67
2021/04/15 04:10:56;;;;;;;4.73;3.00;;;3.20;99.90;;;;;;5086826;27;20452;-66
2021/04/15 04:13:31;;;;;;;4.33;3.23;;;3.10;99.90;;;;;;5093349;27;20587;-66
2021/04/15 04:16:05;;;;;;;5.53;2.87;;;3.10;99.90;;;;;;5091371;27;20453;-66
2021/04/15 04:18:41;;;;;;;3.90;2.50;;;3.10;99.90;;;;;;5098471;27;20448;-66
2021/04/15 04:21:16;;;;;;;5.80;3.20;;;3.00;99.90;;;;;;5093011;27;20451;-66
2021/04/15 04:23:48;;;;;;;4.70;3.10;;;3.10;99.90;;;;;;5095774;27;20487;-67
2021/04/15 04:26:21;;;;;;;3.30;2.43;;;3.10;99.90;;;;;;5101895;27;20481;-67
2021/04/15 04:29:04;;;;;;;5.00;2.70;;;3.00;99.90;;;;;;5091152;27;20440;-67
2021/04/15 04:31:37;;;;;;;4.60;2.83;;;2.90;99.90;;;;;;5099563;27;20484;-67
2021/04/15 04:34:04;;;;;;;4.43;1.73;;;2.70;99.90;;;;;;5094068;27;20563;-67
2021/04/15 04:36:34;;;;;;;6.67;2.90;;;2.70;99.90;;;;;;5099349;27;20456;-67
2021/04/15 04:39:01;;;;;;;2.30;1.50;;;2.70;99.90;;;;;;5094252;28;20460;-67
2021/04/15 04:41:35;;;;;;;18.47;5.47;;;2.70;99.90;;;;;;5095105;27;20971;-66
2021/04/15 04:44:06;;;;;;;5.07;4.57;;;2.70;99.90;;;;;;5101109;27;20444;-67
2021/04/15 04:46:41;;;;;;;3.97;2.93;;;2.60;99.90;;;;;;5091866;27;20436;-66
2021/04/15 04:49:14;;;;;;;8.10;2.43;;;2.60;99.90;;;;;;5093196;28;20518;-66
2021/04/15 04:51:47;;;;;;;4.10;3.50;;;2.70;99.90;;;;;;5082551;27;20443;-65
2021/04/15 04:54:16;;;;;;;4.90;3.27;;;2.70;99.90;;;;;;5097034;27;20498;-66
2021/04/15 04:56:48;;;;;;;3.43;2.60;;;2.70;99.90;;;;;;5098711;27;20472;-66
2021/04/15 04:59:20;;;;;;;9.13;3.67;;;2.70;99.90;;;;;;5100713;27;20533;-66
2021/04/15 05:01:47;;;;;;;4.67;2.53;;;2.70;99.90;;;;;;5101125;27;20562;-67
2021/04/15 05:04:14;;;;;;;4.20;3.33;;;2.70;99.90;;;;;;5101983;27;20419;-66
2021/04/15 05:06:43;;;;;;;5.93;3.10;;;2.60;99.90;;;;;;5104108;27;20467;-66
2021/04/15 05:09:16;;;;;;;4.97;4.20;;;2.70;99.90;;;;;;5109314;27;20896;-66
2021/04/15 05:11:46;;;;;;;4.70;2.90;;;2.80;99.90;;;;;;5102455;27;20510;-66
2021/04/15 05:14:15;;;;;;;5.53;3.63;;;2.80;99.90;;;;;;5105780;27;20451;-66
2021/04/15 05:16:46;;;;;;;5.10;3.43;;;2.70;99.90;;;;;;5103178;27;20443;-66
2021/04/15 05:19:14;;;;;;;5.73;3.17;;;2.70;99.90;;;;;;5096266;27;20431;-66
2021/04/15 05:21:42;;;;;;;6.60;4.50;;;2.70;99.90;;;;;;5097692;28;20520;-66
2021/04/15 05:24:16;;;;;;;8.57;4.80;;;2.70;99.90;;;;;;5099952;27;20485;-66
2021/04/15 05:26:44;;;;;;;7.70;4.50;;;2.80;99.90;;;;;;5103912;28;20523;-66
2021/04/15 05:29:16;;;;;;;14.60;4.00;;;3.00;99.90;;;;;;5100762;27;20485;-66
2021/04/15 05:31:44;;;;;;;8.00;5.20;;;3.10;99.90;;;;;;5106273;27;20455;-67
2021/04/15 05:34:19;;;;;;;5.27;4.63;;;3.40;99.90;;;;;;5107235;27;20878;-68
2021/04/15 05:36:46;;;;;;;4.87;3.03;;;3.60;99.90;;;;;;5094255;27;20514;-67
2021/04/15 05:39:16;;;;;;;6.07;4.87;;;3.80;99.90;;;;;;5098903;28;20536;-68
2021/04/15 05:41:47;;;;;;;7.73;3.70;;;4.10;99.90;;;;;;5102682;27;20448;-68
2021/04/15 05:44:20;;;;;;;4.73;3.80;;;4.10;99.90;;;;;;5101502;27;20495;-66
2021/04/15 05:46:50;;;;;;;5.03;4.30;;;4.40;99.90;;;;;;5098150;28;20461;-67
2021/04/15 05:49:21;;;;;;;6.27;3.27;;;4.80;99.90;;;;;;5105222;28;20471;-66
2021/04/15 05:51:54;;;;;;;4.20;3.83;;;5.20;99.90;;;;;;5093771;28;20493;-67
2021/04/15 05:54:22;;;;;;;3.77;3.13;;;5.40;99.90;;;;;;5087083;28;20959;-66
2021/04/15 05:56:58;;;;;;;13.97;3.73;;;5.40;99.90;;;;;;5098078;28;20679;-65
2021/04/15 05:59:33;;;;;;;5.90;3.93;;;5.60;99.90;;;;;;5102274;28;20505;-65
2021/04/15 06:02:33;;;;;;;5.90;4.30;;;6.00;99.90;;;;;;5100540;27;21062;-67
2021/04/15 06:05:11;;;;;;;5.43;3.57;;;6.50;99.90;;;;;;5101206;28;20996;-67
2021/04/15 06:07:39;;;;;;;7.40;4.40;;;6.90;99.90;;;;;;5094236;27;20484;-66
2021/04/15 06:10:08;;;;;;;6.60;3.87;;;7.30;99.90;;;;;;5103606;28;20430;-67
2021/04/15 06:12:40;;;;;;;31.53;3.67;;;7.60;99.90;;;;;;5099927;28;20497;-67
2021/04/15 06:15:10;;;;;;;4.80;3.97;;;8.00;99.90;;;;;;5100139;27;20675;-67
2021/04/15 06:17:40;;;;;;;4.13;3.10;;;8.10;99.90;;;;;;5095870;27;20420;-68
2021/04/15 06:20:13;;;;;;;7.83;4.33;;;8.20;99.90;;;;;;5098450;28;20456;-68
2021/04/15 06:22:44;;;;;;;5.30;4.07;;;8.40;99.90;;;;;;5100942;28;21012;-67
2021/04/15 06:25:17;;;;;;;3.73;3.13;;;8.50;99.90;;;;;;5095561;28;20425;-67
2021/04/15 06:27:45;;;;;;;8.23;3.80;;;8.70;99.90;;;;;;5103855;28;20804;-67
2021/04/15 06:30:16;;;;;;;3.13;2.60;;;8.90;99.90;;;;;;5092269;28;20477;-67
2021/04/15 06:32:50;;;;;;;9.90;4.63;;;9.70;99.90;;;;;;5098412;28;20491;-67
2021/04/15 06:35:21;;;;;;;3.63;2.73;;;10.10;99.90;;;;;;5093305;28;20526;-67
2021/04/15 06:37:52;;;;;;;9.40;3.43;;;9.60;99.90;;;;;;5101501;28;20427;-67
2021/04/15 06:40:53;;;;;;;5.20;3.40;;;9.90;99.90;;;;;;5093495;28;20915;-67
2021/04/15 06:43:58;;;;;;;4.10;2.47;;;9.90;99.90;;;;;;5097382;28;20514;-67
2021/04/15 06:46:49;;;;;;;2.70;2.40;;;10.00;99.90;;;;;;5098266;28;20972;-67
2021/04/15 06:49:31;;;;;;;3.23;2.50;;;10.20;99.90;;;;;;5097402;28;20619;-67
2021/04/15 06:52:04;;;;;;;5.17;4.33;;;10.30;99.90;;;;;;5092489;28;20476;-67
2021/04/15 06:54:52;;;;;;;9.63;3.07;;;10.30;99.90;;;;;;5096461;28;20984;-67
2021/04/15 06:57:33;;;;;;;3.17;2.60;;;9.90;99.90;;;;;;5098885;28;20497;-67
2021/04/15 07:00:45;;;;;;;3.83;3.00;;;10.90;99.90;;;;;;5104751;28;20453;-68
2021/04/15 07:03:23;;;;;;;13.60;3.40;;;11.30;99.90;;;;;;5037447;28;20483;-67
2021/04/15 07:05:56;;;;;;;6.43;3.60;;;11.90;99.90;;;;;;5083142;28;21107;-67
2021/04/15 07:08:57;;;;;;;14.30;3.73;;;12.50;99.90;;;;;;5099794;28;20446;-68
2021/04/15 07:11:42;;;;;;;4.27;3.03;;;12.70;99.90;;;;;;5087394;28;21036;-67
2021/04/15 07:14:27;;;;;;;10.17;4.07;;;12.90;99.90;;;;;;5099991;28;20512;-68
2021/04/15 07:17:25;;;;;;;4.00;2.47;;;13.10;99.90;;;;;;5095929;28;20495;-67
2021/04/15 07:20:34;;;;;;;5.37;3.23;;;13.40;99.90;;;;;;5084551;28;20514;-65
2021/04/15 07:23:34;;;;;;;6.97;4.30;;;13.80;99.90;;;;;;5108071;28;20462;-66
2021/04/15 07:26:22;;;;;;;8.07;3.33;;;13.30;99.90;;;;;;5099856;28;20966;-66
2021/04/15 07:29:13;;;;;;;7.40;3.03;;;13.90;99.90;;;;;;5098429;28;20457;-66
2021/04/15 07:32:04;;;;;;;10.00;2.67;;;13.50;99.90;;;;;;5103049;28;20472;-67
2021/04/15 07:34:44;;;;;;;9.17;2.80;;;14.20;99.90;;;;;;5098617;28;21005;-67
2021/04/15 07:37:38;;;;;;;5.87;2.50;;;14.30;99.90;;;;;;5105944;27;20467;-67
2021/04/15 07:40:21;;;;;;;3.87;3.10;;;13.80;99.90;;;;;;5112774;27;20488;-66
2021/04/15 07:42:58;;;;;;;8.37;2.57;;;13.20;99.90;;;;;;5109182;27;20479;-66
2021/04/15 07:45:30;;;;;;;5.20;2.63;;;13.20;99.90;;;;;;5104134;27;20503;-67
2021/04/15 07:48:26;;;;;;;5.23;2.43;;;13.20;99.90;;;;;;5107352;27;20452;-67
2021/04/15 07:51:24;;;;;;;3.77;2.30;;;14.00;99.90;;;;;;5113924;27;20494;-66
2021/04/15 07:54:17;;;;;;;2.63;1.90;;;14.00;99.90;;;;;;5107719;27;20480;-67
2021/04/15 07:57:20;;;;;;;3.13;1.83;;;13.90;98.90;;;;;;5092843;27;20470;-66
2021/04/15 08:00:05;;;;;;;3.33;2.23;;;13.50;98.10;;;;;;5105012;27;20993;-66
2021/04/15 08:02:59;;;;;;;2.27;1.90;;;14.00;99.20;;;;;;5105110;27;20483;-67
2021/04/15 08:05:44;;;;;;;4.20;2.00;;;14.90;97.50;;;;;;5109932;27;20489;-67
2021/04/15 08:08:43;;;;;;;4.53;2.50;;;15.70;95.00;;;;;;5094631;27;20952;-67
2021/04/15 08:11:38;;;;;;;3.97;2.30;;;15.40;95.40;;;;;;5093839;27;20924;-67
2021/04/15 08:14:27;;;;;;;4.20;2.17;;;16.30;92.80;;;;;;5100726;27;20457;-66
2021/04/15 08:17:20;;;;;;;2.40;2.10;;;15.40;91.50;;;;;;5079545;27;20460;-66
2021/04/15 08:20:12;;;;;;;2.20;1.93;;;14.50;92.00;;;;;;5097126;27;20453;-67
2021/04/15 08:23:13;;;;;;;2.50;2.10;;;13.40;93.20;;;;;;5108502;27;20902;-66
2021/04/15 08:25:57;;;;;;;2.50;1.90;;;12.70;96.30;;;;;;5040091;28;20475;-65
2021/04/15 08:29:05;;;;;;;6.33;2.67;;;12.60;96.70;;;;;;5091339;28;20471;-65
2021/04/15 08:31:47;;;;;;;7.20;2.43;;;13.00;97.60;;;;;;5017640;28;20477;-66
2021/04/15 08:34:25;;;;;;;3.00;1.67;;;13.20;96.60;;;;;;5013544;28;21101;-65
2021/04/15 08:37:28;;;;;;;2.90;2.50;;;12.50;97.00;;;;;;5076669;27;21167;-66
2021/04/15 08:40:08;;;;;;;3.30;2.23;;;13.50;96.90;;;;;;5100730;27;20502;-66
2021/04/15 08:42:44;;;;;;;3.63;1.30;;;14.30;93.70;;;;;;5104711;27;20440;-66
2021/04/15 08:45:33;;;;;;;3.80;2.30;;;14.80;91.60;;;;;;5102988;27;20461;-66
2021/04/15 08:48:18;;;;;;;4.93;1.73;;;15.40;89.80;;;;;;5099047;27;20965;-66
2021/04/15 08:50:54;;;;;;;1.93;1.70;;;14.90;88.60;;;;;;5103167;28;20495;-66
2021/04/15 08:53:57;;;;;;;3.60;2.07;;;15.20;84.70;;;;;;5100384;27;20451;-66
2021/04/15 08:56:28;;;;;;;4.93;2.70;;;15.40;87.40;;;;;;5033388;27;20881;-66
2021/04/15 08:59:11;;;;;;;3.23;2.33;;;16.80;84.40;;;;;;5103193;28;20865;-66
2021/04/15 09:01:49;;;;;;;4.17;2.93;;;17.40;81.00;;;;;;5103010;27;20473;-66
2021/04/15 09:04:18;;;;;;;4.37;2.63;;;17.50;80.70;;;;;;5102323;28;20482;-66
2021/04/15 09:06:56;;;;;;;1.80;1.67;;;17.60;77.30;;;;;;5104328;27;20942;-66
2021/04/15 09:09:31;;;;;;;2.27;1.73;;;17.00;77.00;;;;;;5106088;27;20461;-66
2021/04/15 09:12:20;;;;;;;2.07;1.50;;;16.70;74.10;;;;;;5106574;27;20714;-66
2021/04/15 09:14:58;;;;;;;2.20;1.73;;;16.60;76.00;;;;;;5105267;27;20897;-67
2021/04/15 09:17:32;;;;;;;2.57;2.30;;;16.90;73.50;;;;;;5090732;27;20524;-66
2021/04/15 09:20:06;;;;;;;8.97;4.13;;;16.20;72.90;;;;;;5100546;27;20445;-67
2021/04/15 09:22:57;;;;;;;3.10;2.47;;;15.00;73.00;;;;;;5089445;27;20775;-66
2021/04/15 09:25:37;;;;;;;2.23;1.77;;;15.90;75.30;;;;;;5059740;28;20547;-67
2021/04/15 09:28:09;;;;;;;2.90;2.50;;;16.30;72.90;;;;;;5096536;28;20461;-67
2021/04/15 09:31:03;;;;;;;4.13;2.10;;;16.30;74.60;;;;;;5097432;27;20886;-67
2021/04/15 09:33:45;;;;;;;5.10;1.90;;;15.80;74.90;;;;;;5098694;27;20495;-66
2021/04/15 09:36:20;;;;;;;3.40;2.13;;;14.80;74.10;;;;;;5103874;28;20855;-67
2021/04/15 09:39:05;;;;;;;5.50;1.90;;;15.10;76.60;;;;;;5100026;27;20494;-66
2021/04/15 09:42:01;;;;;;;4.70;2.10;;;16.50;74.00;;;;;;5112572;27;20555;-65
2021/04/15 09:44:48;;;;;;;2.33;1.93;;;16.80;71.00;;;;;;5096932;27;20526;-65
2021/04/15 09:47:32;;;;;;;3.40;2.27;;;17.90;70.20;;;;;;5104976;27;21066;-66
2021/04/15 09:50:10;;;;;;;1.90;1.63;;;18.80;67.10;;;;;;5107133;27;20448;-66
2021/04/15 09:53:03;;;;;;;2.37;1.83;;;18.70;64.20;;;;;;5103005;27;20872;-65
2021/04/15 09:55:56;;;;;;;2.00;1.80;;;19.00;63.30;;;;;;5101571;28;21032;-66
2021/04/15 09:58:35;;;;;;;2.50;2.17;;;19.20;61.00;;;;;;5090996;27;21027;-66
2021/04/15 10:01:08;;;;;;;2.60;1.67;;;20.30;58.50;;;;;;5095860;28;20480;-66
2021/04/15 10:03:46;;;;;;;2.90;2.20;;;20.40;55.70;;;;;;5101675;27;20520;-66
2021/04/15 10:06:18;;;;;;;1.53;1.10;;;19.10;53.70;;;;;;5106864;27;20959;-66
2021/04/15 10:09:06;;;;;;;1.80;1.70;;;17.90;52.60;;;;;;5116277;27;20491;-66
2021/04/15 10:12:01;;;;;;;2.17;1.97;;;16.50;55.50;;;;;;5099945;27;21005;-66
2021/04/15 10:14:41;;;;;;;2.00;1.80;;;16.30;56.70;;;;;;5102983;27;20546;-67
2021/04/15 10:17:33;;;;;;;3.10;1.90;;;16.20;58.50;;;;;;5096515;27;20456;-67
2021/04/15 10:20:25;;;;;;;6.33;2.40;;;15.30;59.40;;;;;;5101004;27;21147;-66
2021/04/15 10:23:04;;;;;;;2.77;2.40;;;14.40;61.80;;;;;;5103233;28;20526;-67
2021/04/15 10:25:33;;;;;;;2.27;2.07;;;13.90;64.90;;;;;;5094423;28;20956;-66
2021/04/15 10:28:32;;;;;;;9.70;3.23;;;14.90;64.10;;;;;;5106042;28;20537;-66
2021/04/15 10:31:40;;;;;;;7.00;2.67;;;16.40;62.10;;;;;;5089625;28;20496;-67
2021/04/15 10:34:31;;;;;;;2.77;2.37;;;17.70;61.20;;;;;;5089816;28;20457;-66
2021/04/15 10:37:08;;;;;;;3.47;2.90;;;17.40;59.30;;;;;;5090635;28;20496;-67
2021/04/15 10:40:19;;;;;;;2.60;2.33;;;16.60;61.00;;;;;;5094692;28;20446;-66
2021/04/15 10:43:24;;;;;;;7.13;2.73;;;16.30;59.70;;;;;;5004249;28;20484;-67
2021/04/15 10:46:21;;;;;;;3.77;2.57;;;15.00;61.10;;;;;;5098933;28;20551;-66
2021/04/15 10:48:56;;;;;;;3.00;2.00;;;16.40;64.80;;;;;;5106763;28;20492;-66
2021/04/15 10:51:34;;;;;;;2.60;2.40;;;17.90;62.80;;;;;;5104641;28;20476;-67
2021/04/15 10:54:05;;;;;;;5.20;3.10;;;18.70;58.90;;;;;;5095955;28;21215;-67
2021/04/15 10:56:44;;;;;;;11.43;3.50;;;18.80;56.40;;;;;;5096318;28;20485;-67
2021/04/15 10:59:27;;;;;;;4.70;2.67;;;17.70;57.80;;;;;;5090178;28;20484;-67
2021/04/15 11:02:21;;;;;;;3.23;2.03;;;16.50;58.10;;;;;;5101097;28;20543;-66
2021/04/15 11:04:48;;;;;;;4.47;2.13;;;15.00;58.50;;;;;;5100761;28;20480;-66
2021/04/15 11:07:18;;;;;;;4.30;2.33;;;13.70;62.00;;;;;;5099474;28;20552;-66
2021/04/15 11:09:46;;;;;;;3.97;2.47;;;13.40;63.60;;;;;;5107565;27;20444;-66
2021/04/15 11:12:27;;;;;;;3.90;2.30;;;12.90;65.50;;;;;;5101923;27;20556;-67
2021/04/15 11:15:06;;;;;;;4.07;2.50;;;13.40;65.00;;;;;;5099436;28;20469;-66
2021/04/15 11:17:38;;;;;;;2.40;2.20;;;13.70;66.20;;;;;;5100514;27;20460;-66
2021/04/15 11:20:25;;;;;;;3.10;2.00;;;13.50;66.80;;;;;;5100426;28;20480;-66
2021/04/15 11:22:55;;;;;;;8.20;2.60;;;12.90;66.10;;;;;;5097120;27;20540;-67
2021/04/15 11:25:25;;;;;;;4.00;2.77;;;12.60;68.20;;;;;;5101186;27;20477;-67
2021/04/15 11:27:53;;;;;;;1.83;1.73;;;13.20;68.00;;;;;;5103348;27;20539;-67
2021/04/15 11:30:34;;;;;;;4.80;2.73;;;13.40;64.10;;;;;;5108154;27;20484;-66
2021/04/15 11:33:02;;;;;;;2.50;2.30;;;13.50;65.20;;;;;;5101031;27;20460;-67
2021/04/15 11:35:29;;;;;;;3.00;2.03;;;14.80;65.60;;;;;;5090629;27;20508;-66
2021/04/15 11:38:18;;;;;;;5.10;2.63;;;15.30;60.30;;;;;;5074584;27;20496;-66
2021/04/15 11:40:46;;;;;;;5.33;3.00;;;14.70;59.60;;;;;;5095176;27;21140;-67
2021/04/15 11:43:35;;;;;;;1.43;1.33;;;14.10;63.00;;;;;;5098907;27;20453;-66
2021/04/15 11:46:15;;;;;;;3.90;2.67;;;13.70;63.70;;;;;;5088067;27;20476;-66
2021/04/15 11:48:43;;;;;;;2.97;2.67;;;13.20;65.70;;;;;;5097111;27;21036;-67
2021/04/15 11:51:15;;;;;;;6.73;2.93;;;13.20;67.50;;;;;;5099801;27;20504;-66
2021/04/15 11:53:46;;;;;;;3.20;2.60;;;13.90;69.50;;;;;;5092858;27;20956;-67
2021/04/15 11:56:17;;;;;;;5.27;2.63;;;15.70;64.50;;;;;;5100685;27;20551;-67
2021/04/15 11:58:44;;;;;;;3.00;2.67;;;17.40;59.10;;;;;;5095429;28;20453;-67
2021/04/15 12:01:11;;;;;;;2.70;2.20;;;18.20;56.20;;;;;;5081908;28;20477;-67
2021/04/15 12:03:55;;;;;;;3.17;2.43;;;16.90;56.70;;;;;;5102055;27;20460;-65
2021/04/15 12:06:23;;;;;;;3.23;2.70;;;15.60;56.60;;;;;;5097709;27;20445;-65
2021/04/15 12:08:52;;;;;;;3.63;2.37;;;14.90;57.50;;;;;;5098482;27;20464;-66
2021/04/15 12:11:24;;;;;;;5.80;3.20;;;14.40;57.30;;;;;;5098040;27;20492;-65
2021/04/15 12:13:56;;;;;;;4.83;2.73;;;13.20;58.70;;;;;;5096162;27;20465;-66
2021/04/15 12:16:27;;;;;;;4.40;3.30;;;12.50;60.10;;;;;;5097386;27;20469;-66
2021/04/15 12:18:59;;;;;;;7.77;3.87;;;12.40;63.20;;;;;;5098908;27;20512;-66
2021/04/15 12:21:32;;;;;;;5.67;3.70;;;12.90;62.80;;;;;;5099903;27;20987;-66
2021/04/15 12:24:05;;;;;;;4.00;2.93;;;13.30;63.40;;;;;;5110353;27;20879;-66
2021/04/15 12:26:40;;;;;;;10.10;3.47;;;14.70;60.20;;;;;;5099793;28;20510;-66
2021/04/15 12:29:13;;;;;;;5.50;2.83;;;16.20;59.60;;;;;;5096047;27;20464;-66
2021/04/15 12:31:44;;;;;;;5.47;3.33;;;15.30;57.90;;;;;;5092629;28;20480;-66
2021/04/15 12:34:35;;;;;;;7.83;2.60;;;15.50;59.20;;;;;;5095574;28;20486;-66
2021/04/15 12:37:08;;;;;;;3.10;2.60;;;15.40;58.30;;;;;;5096892;27;20934;-66
2021/04/15 12:39:46;;;;;;;2.80;2.57;;;14.70;59.30;;;;;;5091974;28;20888;-66
2021/04/15 12:42:15;;;;;;;3.37;2.40;;;13.60;59.30;;;;;;5092024;28;20477;-65
2021/04/15 12:44:42;;;;;;;4.40;1.97;;;12.90;58.10;;;;;;5088722;27;20517;-66
2021/04/15 12:47:11;;;;;;;2.70;2.03;;;12.40;58.90;;;;;;5080279;28;20854;-66
2021/04/15 12:49:38;;;;;;;1.10;1.00;;;12.30;59.90;;;;;;5106579;27;20719;-66
2021/04/15 12:52:12;;;;;;;9.53;2.50;;;12.50;56.90;;;;;;5114118;27;20500;-66
2021/04/15 12:54:40;;;;;;;4.30;2.37;;;12.40;58.50;;;;;;5105158;27;20508;-64
2021/04/15 12:57:09;;;;;;;2.63;2.37;;;12.40;59.20;;;;;;5095163;27;20549;-66
2021/04/15 12:59:38;;;;;;;9.03;3.10;;;12.90;59.60;;;;;;5100864;27;20503;-67
2021/04/15 13:02:13;;;;;;;3.53;2.97;;;14.50;60.40;;;;;;5110872;27;20476;-67
2021/04/15 13:04:47;;;;;;;5.93;2.70;;;15.70;57.80;;;;;;5103660;27;20579;-67
2021/04/15 13:07:17;;;;;;;3.37;2.50;;;17.00;56.60;;;;;;5101429;27;20471;-66
2021/04/15 13:09:44;;;;;;;2.10;1.90;;;16.90;56.10;;;;;;5103455;27;20465;-66
2021/04/15 13:12:31;;;;;;;6.80;2.33;;;15.80;51.90;;;;;;5104586;28;20480;-66
2021/04/15 13:14:59;;;;;;;4.20;1.90;;;14.50;54.70;;;;;;5098865;27;20572;-65
2021/04/15 13:17:46;;;;;;;4.90;4.13;;;13.50;55.70;;;;;;5102252;27;20534;-66
2021/04/15 13:20:35;;;;;;;2.13;1.60;;;13.90;58.00;;;;;;5106325;27;20452;-65
2021/04/15 13:23:34;;;;;;;1.93;1.73;;;14.50;58.20;;;;;;5099649;28;20435;-66
2021/04/15 13:26:25;;;;;;;2.43;2.23;;;15.30;55.70;;;;;;5097527;27;20562;-67
2021/04/15 13:29:22;;;;;;;3.20;2.90;;;16.20;56.10;;;;;;5100420;27;20458;-66
2021/04/15 13:31:55;;;;;;;3.03;2.33;;;17.00;54.80;;;;;;5101258;27;20508;-66
2021/04/15 13:34:23;;;;;;;2.33;2.13;;;18.10;54.60;;;;;;5104636;27;20554;-66
2021/04/15 13:36:52;;;;;;;5.13;2.80;;;18.50;51.80;;;;;;5113725;27;20451;-66
2021/04/15 13:39:35;;;;;;;3.30;1.97;;;18.40;49.80;;;;;;5107365;27;20566;-66